createdAt,value
2024-04-11T00:00:36.661Z,102771.19
2024-04-11T00:01:41.805Z,102774.72
2024-04-11T00:02:44.518Z,102774.81
2024-04-11T00:03:46.456Z,102774.00
2024-04-11T00:04:48.611Z,102772.19
2024-04-11T00:05:50.801Z,102775.78
2024-04-11T00:06:52.525Z,102776.69
2024-04-11T00:07:54.150Z,102775.09
2024-04-11T00:08:55.843Z,102770.53
2024-04-11T00:09:57.553Z,102772.19
2024-04-11T00:10:59.206Z,102773.81
2024-04-11T00:12:00.978Z,102770.16
2024-04-11T00:13:02.819Z,102771.97
2024-04-11T00:14:04.540Z,102769.47
2024-04-11T00:15:06.754Z,102772.09
2024-04-11T00:16:11.272Z,102778.34
2024-04-11T00:17:13.324Z,102773.09
2024-04-11T00:18:15.043Z,102777.34
2024-04-11T00:19:16.894Z,102776.44
2024-04-11T00:20:18.595Z,102773.81
2024-04-11T00:21:20.284Z,102778.13
2024-04-11T00:22:21.915Z,102765.81
2024-04-11T00:23:24.089Z,102773.50
2024-04-11T00:24:25.799Z,102778.56
2024-04-11T00:25:27.569Z,102770.50
2024-04-11T00:26:29.219Z,102774.03
2024-04-11T00:27:30.992Z,102773.22
2024-04-11T00:28:35.701Z,102769.78
2024-04-11T00:29:37.397Z,102775.94
2024-04-11T00:30:39.122Z,102776.84
2024-04-11T00:31:43.357Z,102778.47
2024-04-11T00:32:45.187Z,102773.94
2024-04-11T00:33:47.178Z,102775.44
2024-04-11T00:34:48.981Z,102767.50
2024-04-11T00:35:52.668Z,102778.06
2024-04-11T00:36:54.466Z,102786.03
2024-04-11T00:37:56.640Z,102780.78
2024-04-11T00:38:58.604Z,102780.59
2024-04-11T00:40:00.463Z,102787.56
2024-04-11T00:41:05.321Z,102780.41
2024-04-11T00:42:07.052Z,102782.84
2024-04-11T00:43:09.147Z,102780.72
2024-04-11T00:44:14.238Z,102786.88
2024-04-11T00:45:15.891Z,102780.72
2024-04-11T00:46:20.266Z,102788.28
2024-04-11T00:47:24.731Z,102788.19
2024-04-11T00:48:26.865Z,102784.75
2024-04-11T00:49:29.047Z,102789.38
2024-04-11T00:50:30.990Z,102791.22
2024-04-11T00:51:33.007Z,102787.69
2024-04-11T00:52:39.003Z,102792.94
2024-04-11T00:53:41.093Z,102787.56
2024-04-11T00:54:43.335Z,102789.28
2024-04-11T00:55:45.012Z,102787.47
2024-04-11T00:56:46.967Z,102794.22
2024-04-11T00:57:48.752Z,102789.78
2024-04-11T00:58:50.413Z,102793.31
2024-04-11T00:59:55.139Z,102793.22
2024-04-11T01:00:56.898Z,102793.03
2024-04-11T01:01:58.681Z,102795.38
2024-04-11T01:03:04.004Z,102794.13
2024-04-11T01:04:08.654Z,102798.47
2024-04-11T01:05:10.458Z,102786.34
2024-04-11T01:06:12.136Z,102787.16
2024-04-11T01:07:13.848Z,102782.00
2024-04-11T01:08:15.487Z,102783.81
2024-04-11T01:09:17.160Z,102789.97
2024-04-11T01:10:18.985Z,102782.00
2024-04-11T01:11:20.666Z,102783.63
2024-04-11T01:12:22.532Z,102787.97
2024-04-11T01:13:24.417Z,102785.13
2024-04-11T01:14:26.735Z,102787.75
2024-04-11T01:15:28.470Z,102798.06
2024-04-11T01:16:31.060Z,102789.16
2024-04-11T01:17:32.818Z,102790.78
2024-04-11T01:18:37.210Z,102786.44
2024-04-11T01:19:39.099Z,102793.31
2024-04-11T01:20:40.885Z,102785.94
2024-04-11T01:21:42.611Z,102798.84
2024-04-11T01:22:46.803Z,102793.41
2024-04-11T01:23:48.423Z,102795.72
2024-04-11T01:24:50.189Z,102800.75
2024-04-11T01:25:51.857Z,102793.59
2024-04-11T01:27:03.142Z,102785.91
2024-04-11T01:28:05.406Z,102785.09
2024-04-11T01:29:07.106Z,102792.78
2024-04-11T01:30:10.039Z,102785.81
2024-04-11T01:31:11.732Z,102791.13
2024-04-11T01:32:13.440Z,102790.31
2024-04-11T01:33:15.211Z,102786.09
2024-04-11T01:34:17.359Z,102785.41
2024-04-11T01:35:19.270Z,102780.25
2024-04-11T01:36:21.098Z,102785.59
2024-04-11T01:37:22.811Z,102774.69
2024-04-11T01:38:27.257Z,102778.13
2024-04-11T01:39:29.054Z,102775.59
2024-04-11T01:40:35.194Z,102772.88
2024-04-11T01:41:37.904Z,102775.59
2024-04-11T01:42:39.534Z,102786.78
2024-04-11T01:43:41.203Z,102778.84
2024-04-11T01:44:43.034Z,102784.09
2024-04-11T01:45:44.743Z,102779.03
2024-04-11T01:46:46.396Z,102779.13
2024-04-11T01:47:48.177Z,102774.91
2024-04-11T01:48:49.984Z,102779.44
2024-04-11T01:49:51.782Z,102779.53
2024-04-11T01:50:53.575Z,102783.09
2024-04-11T01:51:55.252Z,102776.91
2024-04-11T01:52:56.924Z,102789.25
2024-04-11T01:54:01.301Z,102779.66
2024-04-11T01:55:03.093Z,102789.34
2024-04-11T01:56:05.513Z,102779.66
2024-04-11T01:57:07.740Z,102784.00
2024-04-11T01:58:09.427Z,102787.53
2024-04-11T01:59:11.013Z,102780.47
2024-04-11T02:00:13.502Z,102777.94
2024-04-11T02:01:15.200Z,102780.66
2024-04-11T02:02:16.987Z,102788.53
2024-04-11T02:03:18.773Z,102781.47
2024-04-11T02:04:20.609Z,102773.53
2024-04-11T02:05:22.312Z,102780.56
2024-04-11T02:06:23.968Z,102775.22
2024-04-11T02:07:25.709Z,102779.66
2024-04-11T02:08:27.605Z,102768.97
2024-04-11T02:09:31.960Z,102779.53
2024-04-11T02:10:33.705Z,102774.19
2024-04-11T02:11:35.404Z,102774.19
2024-04-11T02:12:37.222Z,102782.06
2024-04-11T02:13:38.939Z,102779.44
2024-04-11T02:14:40.578Z,102774.00
2024-04-11T02:15:42.238Z,102772.16
2024-04-11T02:16:44.039Z,102773.78
2024-04-11T02:17:45.829Z,102771.06
2024-04-11T02:18:47.653Z,102772.66
2024-04-11T02:19:49.435Z,102772.38
2024-04-11T02:20:51.706Z,102773.19
2024-04-11T02:21:56.017Z,102774.88
2024-04-11T02:22:58.180Z,102773.97
2024-04-11T02:24:00.272Z,102778.91
2024-04-11T02:25:05.751Z,102775.56
2024-04-11T02:26:07.503Z,102772.94
2024-04-11T02:27:09.187Z,102773.22
2024-04-11T02:28:10.816Z,102770.84
2024-04-11T02:29:12.484Z,102776.88
2024-04-11T02:30:14.296Z,102772.31
2024-04-11T02:31:16.005Z,102774.16
2024-04-11T02:32:17.790Z,102775.06
2024-04-11T02:33:19.721Z,102783.13
2024-04-11T02:34:21.757Z,102786.88
2024-04-11T02:35:23.831Z,102786.97
2024-04-11T02:36:25.658Z,102785.47
2024-04-11T02:37:27.306Z,102791.72
2024-04-11T02:38:29.023Z,102791.72
2024-04-11T02:39:30.705Z,102797.88
2024-04-11T02:40:35.044Z,102794.16
2024-04-11T02:41:36.714Z,102796.63
2024-04-11T02:42:38.517Z,102792.09
2024-04-11T02:43:40.258Z,102792.69
2024-04-11T02:44:41.897Z,102787.13
2024-04-11T02:45:43.620Z,102786.44
2024-04-11T02:46:45.287Z,102787.34
2024-04-11T02:47:47.079Z,102786.66
2024-04-11T02:48:49.351Z,102787.78
2024-04-11T02:49:51.182Z,102790.50
2024-04-11T02:50:53.100Z,102783.66
2024-04-11T02:51:54.754Z,102788.91
2024-04-11T02:52:56.397Z,102788.91
2024-04-11T02:53:58.180Z,102789.81
2024-04-11T02:55:00.027Z,102780.91
2024-04-11T02:56:04.682Z,102786.88
2024-04-11T02:57:06.420Z,102782.53
2024-04-11T02:58:08.069Z,102777.06
2024-04-11T02:59:09.715Z,102783.94
2024-04-11T03:00:12.237Z,102781.00
2024-04-11T03:01:14.056Z,102782.50
2024-04-11T03:02:15.819Z,102794.47
2024-04-11T03:03:17.691Z,102785.81
2024-04-11T03:04:19.610Z,102790.84
2024-04-11T03:05:23.337Z,102781.53
2024-04-11T03:06:25.176Z,102784.25
2024-04-11T03:07:28.053Z,102779.34
2024-04-11T03:08:29.796Z,102777.75
2024-04-11T03:09:31.534Z,102786.53
2024-04-11T03:10:33.246Z,102781.97
2024-04-11T03:11:38.635Z,102783.78
2024-04-11T03:12:40.497Z,102778.75
2024-04-11T03:13:42.198Z,102790.22
2024-04-11T03:14:46.887Z,102786.81
2024-04-11T03:15:57.507Z,102787.03
2024-04-11T03:16:59.224Z,102783.50
2024-04-11T03:18:01.188Z,102776.22
2024-04-11T03:19:03.001Z,102785.81
2024-04-11T03:20:05.257Z,102781.06
2024-04-11T03:21:08.801Z,102781.84
2024-04-11T03:22:10.588Z,102776.53
2024-04-11T03:23:12.253Z,102788.81
2024-04-11T03:24:14.001Z,102780.94
2024-04-11T03:25:15.919Z,102784.47
2024-04-11T03:26:17.793Z,102789.81
2024-04-11T03:27:28.125Z,102780.16
2024-04-11T03:28:32.435Z,102778.09
2024-04-11T03:29:34.373Z,102777.91
2024-04-11T03:30:36.081Z,102771.78
2024-04-11T03:31:40.808Z,102779.72
2024-04-11T03:32:43.864Z,102780.09
2024-04-11T03:33:45.856Z,102779.59
2024-04-11T03:34:47.606Z,102783.13
2024-04-11T03:35:55.958Z,102776.63
2024-04-11T03:36:57.651Z,102788.53
2024-04-11T03:37:59.687Z,102804.91
2024-04-11T03:39:01.459Z,102801.13
2024-04-11T03:40:03.353Z,102793.16
2024-04-11T03:41:07.579Z,102786.28
2024-04-11T03:42:09.488Z,102797.56
2024-04-11T03:43:13.869Z,102801.97
2024-04-11T03:44:15.700Z,102801.97
2024-04-11T03:45:18.292Z,102793.84
2024-04-11T03:46:21.094Z,102802.72
2024-04-11T03:47:23.199Z,102788.25
2024-04-11T03:48:25.116Z,102790.50
2024-04-11T03:49:26.929Z,102796.75
2024-04-11T03:50:29.377Z,102791.53
2024-04-11T03:51:31.999Z,102780.28
2024-04-11T03:52:33.706Z,102789.47
2024-04-11T03:53:35.468Z,102790.38
2024-04-11T03:54:37.123Z,102790.16
2024-04-11T03:55:43.813Z,102783.44
2024-04-11T03:56:47.086Z,102784.56
2024-04-11T03:57:48.774Z,102783.63
2024-04-11T03:58:53.654Z,102788.56
2024-04-11T03:59:55.255Z,102798.75
2024-04-11T04:00:56.971Z,102794.31
2024-04-11T04:01:58.746Z,102795.81
2024-04-11T04:03:00.621Z,102791.84
2024-04-11T04:04:03.796Z,102792.63
2024-04-11T04:05:06.617Z,102788.84
2024-04-11T04:06:08.803Z,102787.59
2024-04-11T04:07:12.191Z,102784.41
2024-04-11T04:08:13.823Z,102789.53
2024-04-11T04:09:15.617Z,102777.22
2024-04-11T04:10:17.330Z,102789.72
2024-04-11T04:11:20.406Z,102780.50
2024-04-11T04:12:22.326Z,102784.28
2024-04-11T04:13:24.003Z,102787.09
2024-04-11T04:14:28.332Z,102785.66
2024-04-11T04:15:30.200Z,102790.88
2024-04-11T04:16:31.990Z,102788.81
2024-04-11T04:17:34.014Z,102782.28
2024-04-11T04:18:35.866Z,102785.16
2024-04-11T04:19:37.507Z,102792.19
2024-04-11T04:20:39.275Z,102793.84
2024-04-11T04:21:41.302Z,102791.53
2024-04-11T04:22:42.979Z,102796.22
2024-04-11T04:23:45.162Z,102792.31
2024-04-11T04:24:46.907Z,102795.38
2024-04-11T04:25:55.115Z,102797.44
2024-04-11T04:26:56.840Z,102805.75
2024-04-11T04:27:58.653Z,102809.09
2024-04-11T04:29:00.405Z,102806.69
2024-04-11T04:30:06.028Z,102808.38
2024-04-11T04:31:15.711Z,102814.06
2024-04-11T04:32:17.474Z,102807.56
2024-04-11T04:33:19.385Z,102808.13
2024-04-11T04:34:21.237Z,102804.72
2024-04-11T04:35:23.046Z,102811.28
2024-04-11T04:36:26.363Z,102807.16
2024-04-11T04:37:28.041Z,102804.88
2024-04-11T04:38:29.813Z,102804.19
2024-04-11T04:39:31.513Z,102806.91
2024-04-11T04:40:33.178Z,102812.25
2024-04-11T04:41:34.950Z,102810.88
2024-04-11T04:42:36.646Z,102812.00
2024-04-11T04:43:38.474Z,102803.34
2024-04-11T04:44:40.196Z,102813.91
2024-04-11T04:45:44.554Z,102818.16
2024-04-11T04:46:46.212Z,102810.06
2024-04-11T04:47:47.928Z,102813.47
2024-04-11T04:48:50.343Z,102802.44
2024-04-11T04:49:52.031Z,102805.06
2024-04-11T04:50:53.796Z,102797.31
2024-04-11T04:51:55.514Z,102795.69
2024-04-11T04:52:57.146Z,102800.91
2024-04-11T04:54:02.021Z,102802.59
2024-04-11T04:55:04.353Z,102797.81
2024-04-11T04:56:07.798Z,102799.75
2024-04-11T04:57:10.732Z,102799.97
2024-04-11T04:58:12.402Z,102798.81
2024-04-11T04:59:14.397Z,102795.59
2024-04-11T05:00:16.779Z,102802.78
2024-04-11T05:01:21.436Z,102800.91
2024-04-11T05:02:23.191Z,102804.56
2024-04-11T05:03:25.055Z,102807.19
2024-04-11T05:04:26.977Z,102811.69
2024-04-11T05:05:28.824Z,102805.31
2024-04-11T05:06:30.693Z,102809.63
2024-04-11T05:07:32.458Z,102805.06
2024-04-11T05:08:34.397Z,102807.28
2024-04-11T05:09:36.333Z,102812.16
2024-04-11T05:10:38.145Z,102809.19
2024-04-11T05:11:42.796Z,102811.31
2024-04-11T05:12:44.702Z,102804.78
2024-04-11T05:13:49.327Z,102816.28
2024-04-11T05:14:51.657Z,102812.66
2024-04-11T05:15:57.523Z,102808.41
2024-04-11T05:17:01.892Z,102811.44
2024-04-11T05:18:04.132Z,102817.00
2024-04-11T05:19:06.064Z,102820.06
2024-04-11T05:20:08.598Z,102822.09
2024-04-11T05:21:12.271Z,102826.63
2024-04-11T05:22:14.359Z,102811.78
2024-04-11T05:23:16.037Z,102810.88
2024-04-11T05:24:17.737Z,102811.94
2024-04-11T05:25:19.395Z,102808.59
2024-04-11T05:26:21.259Z,102818.34
2024-04-11T05:27:23.055Z,102813.94
2024-04-11T05:28:24.719Z,102813.13
2024-04-11T05:29:26.489Z,102811.72
2024-04-11T05:30:29.349Z,102810.31
2024-04-11T05:31:31.983Z,102813.03
2024-04-11T05:32:38.655Z,102814.16
2024-04-11T05:33:40.752Z,102813.16
2024-04-11T05:34:42.984Z,102812.75
2024-04-11T05:35:44.757Z,102812.63
2024-04-11T05:36:46.408Z,102818.78
2024-04-11T05:37:48.089Z,102817.38
2024-04-11T05:38:49.887Z,102811.84
2024-04-11T05:39:51.687Z,102810.44
2024-04-11T05:40:53.387Z,102811.63
2024-04-11T05:41:55.149Z,102804.25
2024-04-11T05:42:56.919Z,102804.66
2024-04-11T05:43:58.603Z,102797.94
2024-04-11T05:45:00.330Z,102791.97
2024-04-11T05:46:01.960Z,102796.53
2024-04-11T05:47:04.098Z,102792.78
2024-04-11T05:48:11.537Z,102794.81
2024-04-11T05:49:14.014Z,102798.66
2024-04-11T05:50:16.166Z,102810.94
2024-04-11T05:51:17.930Z,102792.25
2024-04-11T05:52:19.627Z,102807.06
2024-04-11T05:53:21.463Z,102801.59
2024-04-11T05:54:30.370Z,102802.91
2024-04-11T05:55:35.157Z,102808.53
2024-04-11T05:56:37.092Z,102800.25
2024-04-11T05:57:38.811Z,102795.28
2024-04-11T05:58:41.656Z,102802.81
2024-04-11T05:59:43.375Z,102804.16
2024-04-11T06:00:45.289Z,102793.13
2024-04-11T06:01:47.020Z,102799.38
2024-04-11T06:02:48.759Z,102788.72
2024-04-11T06:03:53.226Z,102794.44
2024-04-11T06:04:54.944Z,102797.63
2024-04-11T06:05:56.829Z,102795.38
2024-04-11T06:07:00.797Z,102799.53
2024-04-11T06:08:02.354Z,102801.38
2024-04-11T06:09:04.270Z,102799.38
2024-04-11T06:10:06.755Z,102796.28
2024-04-11T06:11:08.524Z,102804.81
2024-04-11T06:12:10.428Z,102805.03
2024-04-11T06:13:12.153Z,102806.78
2024-04-11T06:14:13.851Z,102813.19
2024-04-11T06:15:15.604Z,102809.38
2024-04-11T06:16:17.811Z,102803.31
2024-04-11T06:17:19.596Z,102810.66
2024-04-11T06:18:21.570Z,102798.28
2024-04-11T06:19:29.002Z,102805.47
2024-04-11T06:20:30.694Z,102793.84
2024-04-11T06:21:32.357Z,102806.25
2024-04-11T06:22:34.002Z,102802.66
2024-04-11T06:23:35.632Z,102791.00
2024-04-11T06:24:37.295Z,102795.16
2024-04-11T06:25:39.785Z,102795.91
2024-04-11T06:26:41.538Z,102791.97
2024-04-11T06:27:43.228Z,102790.66
2024-04-11T06:28:44.930Z,102796.59
2024-04-11T06:29:46.600Z,102798.72
2024-04-11T06:30:52.310Z,102794.22
2024-04-11T06:31:54.003Z,102800.72
2024-04-11T06:32:55.839Z,102786.31
2024-04-11T06:33:57.840Z,102796.34
2024-04-11T06:35:02.377Z,102790.69
2024-04-11T06:36:04.465Z,102794.81
2024-04-11T06:37:06.216Z,102789.09
2024-04-11T06:38:07.915Z,102789.44
2024-04-11T06:39:09.612Z,102792.00
2024-04-11T06:40:12.004Z,102790.50
2024-04-11T06:41:13.788Z,102790.19
2024-04-11T06:42:15.567Z,102794.94
2024-04-11T06:43:17.516Z,102785.84
2024-04-11T06:44:19.170Z,102790.81
2024-04-11T06:45:20.831Z,102787.34
2024-04-11T06:46:22.652Z,102790.38
2024-04-11T06:47:32.138Z,102799.22
2024-04-11T06:48:37.331Z,102791.63
2024-04-11T06:49:39.172Z,102797.88
2024-04-11T06:50:43.598Z,102795.25
2024-04-11T06:51:45.506Z,102790.47
2024-04-11T06:52:47.252Z,102795.22
2024-04-11T06:53:49.034Z,102797.09
2024-04-11T06:54:50.805Z,102790.66
2024-04-11T06:55:57.594Z,102796.66
2024-04-11T06:57:00.783Z,102795.72
2024-04-11T06:58:03.467Z,102794.47
2024-04-11T06:59:05.146Z,102797.81
2024-04-11T07:00:08.306Z,102799.75
2024-04-11T07:01:10.191Z,102800.22
2024-04-11T07:02:14.841Z,102805.81
2024-04-11T07:03:16.707Z,102790.88
2024-04-11T07:04:18.563Z,102791.41
2024-04-11T07:05:20.227Z,102803.09
2024-04-11T07:06:24.662Z,102794.66
2024-04-11T07:07:30.575Z,102795.13
2024-04-11T07:08:32.562Z,102801.75
2024-04-11T07:09:37.160Z,102794.94
2024-04-11T07:10:38.839Z,102796.97
2024-04-11T07:11:40.604Z,102795.41
2024-04-11T07:12:42.977Z,102785.06
2024-04-11T07:13:44.614Z,102790.34
2024-04-11T07:14:46.509Z,102792.72
2024-04-11T07:15:48.239Z,102794.41
2024-04-11T07:16:49.855Z,102793.16
2024-04-11T07:17:51.580Z,102794.47
2024-04-11T07:18:54.944Z,102796.00
2024-04-11T07:19:56.772Z,102793.84
2024-04-11T07:20:58.403Z,102797.81
2024-04-11T07:22:02.746Z,102794.91
2024-04-11T07:23:04.714Z,102795.88
2024-04-11T07:24:07.214Z,102790.34
2024-04-11T07:25:08.975Z,102792.97
2024-04-11T07:26:13.721Z,102787.00
2024-04-11T07:27:15.368Z,102792.16
2024-04-11T07:28:17.027Z,102792.50
2024-04-11T07:29:18.789Z,102794.53
2024-04-11T07:30:20.588Z,102798.16
2024-04-11T07:31:22.588Z,102790.06
2024-04-11T07:32:24.334Z,102793.63
2024-04-11T07:33:26.694Z,102791.94
2024-04-11T07:34:28.399Z,102788.91
2024-04-11T07:35:30.118Z,102792.13
2024-04-11T07:36:32.204Z,102800.34
2024-04-11T07:37:36.454Z,102792.31
2024-04-11T07:38:38.098Z,102798.66
2024-04-11T07:39:39.753Z,102796.25
2024-04-11T07:40:41.456Z,102797.34
2024-04-11T07:41:43.193Z,102801.81
2024-04-11T07:42:44.948Z,102794.97
2024-04-11T07:43:49.442Z,102795.91
2024-04-11T07:44:53.726Z,102795.84
2024-04-11T07:45:55.385Z,102800.56
2024-04-11T07:47:06.438Z,102809.41
2024-04-11T07:48:18.056Z,102796.00
2024-04-11T07:49:21.700Z,102794.44
2024-04-11T07:50:23.514Z,102788.72
2024-04-11T07:51:25.764Z,102797.03
2024-04-11T07:52:27.528Z,102790.53
2024-04-11T07:53:34.420Z,102786.38
2024-04-11T07:54:41.093Z,102791.88
2024-04-11T07:55:49.112Z,102789.03
2024-04-11T07:56:54.705Z,102794.34
2024-04-11T07:57:57.083Z,102790.78
2024-04-11T07:58:58.746Z,102776.06
2024-04-11T08:00:00.659Z,102780.06
2024-04-11T08:01:02.652Z,102781.56
2024-04-11T08:02:04.711Z,102786.09
2024-04-11T08:03:07.452Z,102774.47
2024-04-11T08:04:09.383Z,102782.06
2024-04-11T08:05:11.094Z,102774.13
2024-04-11T08:06:15.161Z,102780.25
2024-04-11T08:07:16.901Z,102775.72
2024-04-11T08:08:18.539Z,102772.97
2024-04-11T08:09:22.891Z,102767.22
2024-04-11T08:10:26.322Z,102778.06
2024-04-11T08:11:28.728Z,102782.69
2024-04-11T08:12:30.426Z,102770.63
2024-04-11T08:13:35.510Z,102771.22
2024-04-11T08:14:42.068Z,102771.44
2024-04-11T08:15:44.218Z,102774.66
2024-04-11T08:16:45.944Z,102772.91
2024-04-11T08:17:54.940Z,102775.25
2024-04-11T08:18:56.686Z,102781.03
2024-04-11T08:20:00.941Z,102778.50
2024-04-11T08:21:02.782Z,102785.13
2024-04-11T08:22:04.726Z,102779.25
2024-04-11T08:23:11.986Z,102788.16
2024-04-11T08:24:22.357Z,102778.75
2024-04-11T08:25:24.022Z,102779.75
2024-04-11T08:26:25.714Z,102780.78
2024-04-11T08:27:27.574Z,102787.22
2024-04-11T08:28:29.210Z,102780.09
2024-04-11T08:29:30.868Z,102785.69
2024-04-11T08:30:32.526Z,102780.22
2024-04-11T08:31:34.260Z,102779.47
2024-04-11T08:32:36.396Z,102776.00
2024-04-11T08:33:41.792Z,102780.63
2024-04-11T08:34:43.634Z,102779.09
2024-04-11T08:35:45.314Z,102784.91
2024-04-11T08:36:47.175Z,102778.91
2024-04-11T08:37:49.732Z,102782.81
2024-04-11T08:38:51.490Z,102781.91
2024-04-11T08:39:56.085Z,102782.09
2024-04-11T08:41:00.239Z,102782.19
2024-04-11T08:42:02.388Z,102773.97
2024-04-11T08:43:04.409Z,102779.56
2024-04-11T08:44:06.351Z,102786.81
2024-04-11T08:45:09.287Z,102779.28
2024-04-11T08:46:11.267Z,102786.63
2024-04-11T08:47:13.033Z,102793.13
2024-04-11T08:48:14.886Z,102779.78
2024-04-11T08:49:16.962Z,102778.66
2024-04-11T08:50:19.113Z,102781.50
2024-04-11T08:51:22.447Z,102779.13
2024-04-11T08:52:24.504Z,102788.25
2024-04-11T08:53:27.192Z,102778.84
2024-04-11T08:54:30.074Z,102792.16
2024-04-11T08:55:34.368Z,102782.97
2024-04-11T08:56:36.148Z,102787.59
2024-04-11T08:57:38.033Z,102800.97
2024-04-11T08:58:43.028Z,102785.38
2024-04-11T08:59:47.032Z,102790.41
2024-04-11T09:00:51.059Z,102793.81
2024-04-11T09:01:55.727Z,102791.84
2024-04-11T09:02:57.607Z,102792.66
2024-04-11T09:03:59.410Z,102792.53
2024-04-11T09:05:07.974Z,102802.25
2024-04-11T09:06:16.656Z,102796.03
2024-04-11T09:07:20.359Z,102792.25
2024-04-11T09:08:22.169Z,102801.59
2024-04-11T09:09:23.968Z,102795.78
2024-04-11T09:10:25.666Z,102792.19
2024-04-11T09:11:30.141Z,102798.81
2024-04-11T09:12:32.280Z,102806.53
2024-04-11T09:13:34.102Z,102793.47
2024-04-11T09:14:36.476Z,102802.84
2024-04-11T09:15:38.246Z,102804.38
2024-04-11T09:16:39.952Z,102807.44
2024-04-11T09:17:42.725Z,102804.13
2024-04-11T09:18:44.467Z,102808.03
2024-04-11T09:19:46.174Z,102798.41
2024-04-11T09:20:48.694Z,102800.63
2024-04-11T09:21:50.427Z,102803.38
2024-04-11T09:22:56.665Z,102796.22
2024-04-11T09:24:00.241Z,102802.28
2024-04-11T09:25:05.055Z,102802.03
2024-04-11T09:26:06.693Z,102809.72
2024-04-11T09:27:11.216Z,102802.63
2024-04-11T09:28:12.872Z,102805.44
2024-04-11T09:29:15.019Z,102807.16
2024-04-11T09:30:17.009Z,102805.56
2024-04-11T09:31:18.780Z,102789.47
2024-04-11T09:32:21.870Z,102793.88
2024-04-11T09:33:25.795Z,102803.66
2024-04-11T09:34:29.194Z,102805.09
2024-04-11T09:35:36.173Z,102794.97
2024-04-11T09:36:40.655Z,102798.16
2024-04-11T09:37:42.430Z,102800.38
2024-04-11T09:38:48.456Z,102806.69
2024-04-11T09:39:51.930Z,102798.41
2024-04-11T09:40:55.716Z,102804.50
2024-04-11T09:41:59.576Z,102797.84
2024-04-11T09:43:07.530Z,102793.09
2024-04-11T09:44:09.693Z,102793.81
2024-04-11T09:45:12.134Z,102792.19
2024-04-11T09:46:14.651Z,102785.81
2024-04-11T09:47:18.513Z,102795.16
2024-04-11T09:48:20.627Z,102797.78
2024-04-11T09:49:25.097Z,102801.19
2024-04-11T09:50:27.479Z,102798.16
2024-04-11T09:51:30.253Z,102798.34
2024-04-11T09:52:33.010Z,102795.66
2024-04-11T09:53:35.233Z,102794.41
2024-04-11T09:54:38.903Z,102799.91
2024-04-11T09:55:40.560Z,102783.94
2024-04-11T09:56:46.255Z,102779.91
2024-04-11T09:57:48.536Z,102791.00
2024-04-11T09:58:52.975Z,102786.28
2024-04-11T09:59:57.804Z,102782.88
2024-04-11T10:01:00.368Z,102786.59
2024-04-11T10:02:03.222Z,102791.16
2024-04-11T10:03:05.335Z,102789.47
2024-04-11T10:04:08.500Z,102779.19
2024-04-11T10:05:10.399Z,102784.56
2024-04-11T10:06:13.335Z,102783.47
2024-04-11T10:07:19.738Z,102788.84
2024-04-11T10:08:24.677Z,102782.47
2024-04-11T10:09:26.492Z,102790.03
2024-04-11T10:10:29.384Z,102789.81
2024-04-11T10:11:34.762Z,102790.44
2024-04-11T10:12:42.714Z,102785.69
2024-04-11T10:13:48.181Z,102799.03
2024-04-11T10:14:57.221Z,102788.75
2024-04-11T10:16:05.347Z,102776.50
2024-04-11T10:17:07.048Z,102785.47
2024-04-11T10:18:12.253Z,102780.13
2024-04-11T10:19:23.190Z,102766.31
2024-04-11T10:20:25.301Z,102789.16
2024-04-11T10:21:36.776Z,102779.69
2024-04-11T10:22:45.694Z,102793.34
2024-04-11T10:23:47.364Z,102789.31
2024-04-11T10:24:51.613Z,102790.03
2024-04-11T10:25:53.350Z,102780.03
2024-04-11T10:26:55.210Z,102785.16
2024-04-11T10:27:56.959Z,102787.28
2024-04-11T10:28:58.809Z,102783.97
2024-04-11T10:30:05.382Z,102782.72
2024-04-11T10:31:09.647Z,102777.75
2024-04-11T10:32:15.273Z,102790.88
2024-04-11T10:33:18.396Z,102791.94
2024-04-11T10:34:22.631Z,102779.59
2024-04-11T10:35:24.354Z,102785.16
2024-04-11T10:36:26.482Z,102793.88
2024-04-11T10:37:28.934Z,102794.97
2024-04-11T10:38:30.638Z,102793.59
2024-04-11T10:39:35.699Z,102790.81
2024-04-11T10:40:37.615Z,102793.22
2024-04-11T10:41:39.476Z,102786.44
2024-04-11T10:42:45.414Z,102789.84
2024-04-11T10:43:52.600Z,102786.25
2024-04-11T10:44:54.900Z,102790.00
2024-04-11T10:45:59.866Z,102782.19
2024-04-11T10:47:01.650Z,102787.19
2024-04-11T10:48:05.830Z,102789.78
2024-04-11T10:49:07.702Z,102783.50
2024-04-11T10:50:10.063Z,102776.91
2024-04-11T10:51:11.691Z,102788.00
2024-04-11T10:52:13.756Z,102802.25
2024-04-11T10:53:19.196Z,102778.13
2024-04-11T10:54:21.064Z,102795.91
2024-04-11T10:55:22.899Z,102791.41
2024-04-11T10:56:24.955Z,102789.25
2024-04-11T10:57:26.775Z,102794.25
2024-04-11T10:58:32.097Z,102783.16
2024-04-11T10:59:33.893Z,102783.94
2024-04-11T11:00:37.556Z,102783.91
2024-04-11T11:01:49.538Z,102783.53
2024-04-11T11:02:57.434Z,102781.03
2024-04-11T11:03:59.386Z,102778.81
2024-04-11T11:05:01.210Z,102786.84
2024-04-11T11:06:11.209Z,102777.50
2024-04-11T11:07:12.960Z,102780.03
2024-04-11T11:08:15.638Z,102773.94
2024-04-11T11:09:18.515Z,102787.84
2024-04-11T11:10:20.411Z,102778.53
2024-04-11T11:11:24.824Z,102769.94
2024-04-11T11:12:28.768Z,102780.09
2024-04-11T11:13:33.781Z,102774.94
2024-04-11T11:14:37.334Z,102770.97
2024-04-11T11:15:38.990Z,102774.56
2024-04-11T11:16:43.240Z,102767.63
2024-04-11T11:17:44.919Z,102769.81
2024-04-11T11:18:46.655Z,102769.06
2024-04-11T11:19:49.455Z,102771.91
2024-04-11T11:20:51.422Z,102769.34
2024-04-11T11:21:53.185Z,102769.84
2024-04-11T11:22:55.194Z,102771.28
2024-04-11T11:23:56.959Z,102765.84
2024-04-11T11:24:58.588Z,102764.91
2024-04-11T11:26:00.248Z,102775.09
2024-04-11T11:27:03.318Z,102772.59
2024-04-11T11:28:05.396Z,102769.59
2024-04-11T11:29:07.614Z,102783.09
2024-04-11T11:30:09.915Z,102763.75
2024-04-11T11:31:11.663Z,102771.50
2024-04-11T11:32:18.212Z,102766.81
2024-04-11T11:33:20.066Z,102762.13
2024-04-11T11:34:21.785Z,102765.75
2024-04-11T11:35:23.437Z,102761.72
2024-04-11T11:36:25.164Z,102764.94
2024-04-11T11:37:29.932Z,102767.91
2024-04-11T11:38:31.624Z,102760.16
2024-04-11T11:39:34.033Z,102760.25
2024-04-11T11:40:35.734Z,102758.34
2024-04-11T11:41:37.421Z,102760.63
2024-04-11T11:42:39.078Z,102759.81
2024-04-11T11:43:48.153Z,102754.25
2024-04-11T11:44:51.164Z,102754.84
2024-04-11T11:45:52.784Z,102758.47
2024-04-11T11:46:54.585Z,102753.66
2024-04-11T11:47:59.495Z,102749.25
2024-04-11T11:49:01.373Z,102749.00
2024-04-11T11:50:03.975Z,102747.31
2024-04-11T11:51:05.745Z,102743.59
2024-04-11T11:52:07.795Z,102749.88
2024-04-11T11:53:09.399Z,102746.47
2024-04-11T11:54:11.161Z,102735.41
2024-04-11T11:55:12.945Z,102730.44
2024-04-11T11:56:14.656Z,102739.81